Terminal Aerodrome Forecast
Issued by NWS Dallas/Fort Worth, TX

Home | Current Version | Previous Version | Text Only | Print | Product List | Glossary On
Versions: 1 2 3 4 5 6 7 8 9 10 11 12 13 14 15 16 17 18 19 20 21 22 23 24 25 26 27 28 29 30
000
FTUS44 KFWD 242322
TAFACT
TAF
KACT 242322Z 2500/2524 17013KT P6SM FEW050 SCT250
     FM251100 18006KT P6SM SCT015
      TEMPO 2512/2515 BKN015
     FM251500 17006KT P6SM SCT040 SCT250=

USA.gov is the U.S. government's official web portal to all federal, state and local government web resources and services.